map of LOH home
LOH - Airport
Location
City:  Loja, Loja, Ecuador
Near (Alt.):La Toma
Name:Ciudad de Catamayo Airport
Old (Alt.):Camilo Ponce Enriquez Airport
ICAO:SECA
IATA:LOH

Details
Type:Airport (Aerodrome, Airfield)
Latitude:359'45"S (-3.995891)
Longitude:7922'19"W (-79.371924)
Datum:WGS 1984
Elevation:4056 ft (1236 m)
Variation:2.28W (WMM2015 magnetic declination)
-0.16 annual change
Runways:1
Longest:6725 × 98 ft (2050 × 30 m), paved

Time
Time Zone:UTC-5
Local Time:

Weather
METAR:SECA 122300Z 05007KT 360V080 9999 OVC040 26/15 Q1016

Related Locations
Nearby:
Farthest:SWY: 12446 mi / 20029 km
Sitiawan, 08, MY

Find:

   beyond  
but within

Other Information
Maps:
NOTAMs:
Links:
Sources:

  
  • flag of Ecuador
  • flag of Loja
  

Sectional Chart

Flight Planning
at skyvector.com

Satellite Image

Google Maps Satellite view

 

Copyright © 2004-2018 Karl L. Swartz. All rights reserved.
The Great Circle Mapper name and logo are trademarks of the Great Circle Mapper.
All other trademarks mentioned herein belong to their respective owners.
Please see credits for attibutions and further copyright information.

  Follow gcmap on Facebook Follow gcmap on Twitter Follow gcmap on Google+ GCmap on LinkedIn

hCard Microformat

Geo Microformat